Terminal Aerodrome Forecast
Issued by NWS Topeka, KS

Home | Current Version | Previous Version | Text Only | Print | Product List | Glossary Off
Versions: 1 2 3 4 5 6 7 8 9 10 11 12 13 14 15 16 17 18

680
FTUS43 KTOP 190857 AAB
TAFTOP
TAF AMD
KTOP 190857Z 1909/2006 14003KT P6SM SCT250
     FM191000 14003KT 3SM BR SCT150
     FM191400 16006KT 4SM BR OVC013
     FM191800 17010KT P6SM SCT025
     FM200400 16008KT 4SM BR OVC015=

USA.gov is the U.S. government's official web portal to all federal, state and local government web resources and services.